createdAt,value
2023-01-22T00:00:29.399Z,-1.30
2023-01-22T00:03:01.099Z,-1.30
2023-01-22T00:05:32.899Z,-1.30
2023-01-22T00:08:04.954Z,-1.30
2023-01-22T00:10:36.635Z,-1.30
2023-01-22T00:13:08.323Z,-1.30
2023-01-22T00:15:40.161Z,-1.30
2023-01-22T00:18:11.937Z,-1.30
2023-01-22T00:20:51.111Z,-1.30
2023-01-22T00:23:23.789Z,-1.30
2023-01-22T00:26:12.008Z,-1.30
2023-01-22T00:28:47.534Z,-1.30
2023-01-22T00:31:19.884Z,-1.30
2023-01-22T00:33:51.618Z,-1.30
2023-01-22T00:36:23.511Z,-1.30
2023-01-22T00:38:55.296Z,-1.30
2023-01-22T00:41:27.446Z,-1.30
2023-01-22T00:43:59.185Z,-1.30
2023-01-22T00:46:31.074Z,-1.30
2023-01-22T00:49:03.593Z,-1.30
2023-01-22T00:51:36.734Z,-1.20
2023-01-22T00:54:09.253Z,-1.20
2023-01-22T00:56:41.038Z,-1.20
2023-01-22T00:59:12.728Z,-1.20
2023-01-22T01:01:44.480Z,-1.10
2023-01-22T01:04:16.199Z,-1.20
2023-01-22T01:06:47.992Z,-1.20
2023-01-22T01:09:19.796Z,-1.20
2023-01-22T01:11:51.448Z,-1.20
2023-01-22T01:14:23.188Z,-1.20
2023-01-22T01:16:56.737Z,-1.20
2023-01-22T01:19:28.659Z,-1.20
2023-01-22T01:22:00.359Z,-1.20
2023-01-22T01:24:32.075Z,-1.20
2023-01-22T01:27:03.952Z,-1.20
2023-01-22T01:29:35.673Z,-1.20
2023-01-22T01:32:07.366Z,-1.20
2023-01-22T01:34:39.410Z,-1.10
2023-01-22T01:37:11.083Z,-1.20
2023-01-22T01:39:42.969Z,-1.10
2023-01-22T01:42:14.788Z,-1.10
2023-01-22T01:45:24.823Z,-1.10
2023-01-22T01:48:28.985Z,-1.10
2023-01-22T01:51:10.368Z,-1.20
2023-01-22T01:53:44.569Z,-1.10
2023-01-22T01:56:23.208Z,-1.20
2023-01-22T01:59:02.461Z,-1.20
2023-01-22T02:01:34.651Z,-1.10
2023-01-22T02:04:07.338Z,-1.10
2023-01-22T02:06:41.104Z,-1.10
2023-01-22T02:09:13.498Z,-1.10
2023-01-22T02:11:45.470Z,-1.10
2023-01-22T02:14:33.295Z,-1.10
2023-01-22T02:17:20.105Z,-1.10
2023-01-22T02:19:51.905Z,-1.00
2023-01-22T02:22:28.605Z,-1.10
2023-01-22T02:25:01.115Z,-1.10
2023-01-22T02:27:32.830Z,-1.00
2023-01-22T02:30:05.967Z,-1.00
2023-01-22T02:32:37.643Z,-1.00
2023-01-22T02:35:09.553Z,-1.00
2023-01-22T02:37:41.251Z,-1.00
2023-01-22T02:40:13.478Z,-1.00
2023-01-22T02:42:45.217Z,-1.00
2023-01-22T02:45:17.123Z,-1.00
2023-01-22T02:47:49.201Z,-1.00
2023-01-22T02:50:21.037Z,-0.90
2023-01-22T02:52:52.923Z,-1.00
2023-01-22T02:55:24.707Z,-0.90
2023-01-22T02:57:56.486Z,-0.90
2023-01-22T03:00:28.250Z,-0.90
2023-01-22T03:02:59.956Z,-0.90
2023-01-22T03:05:31.710Z,-0.90
2023-01-22T03:08:03.605Z,-0.90
2023-01-22T03:10:35.300Z,-0.90
2023-01-22T03:13:25.671Z,-0.90
2023-01-22T03:16:16.128Z,-0.90
2023-01-22T03:19:06.309Z,-0.90
2023-01-22T03:21:43.890Z,-0.90
2023-01-22T03:24:15.651Z,-0.90
2023-01-22T03:26:47.630Z,-0.90
2023-01-22T03:29:19.307Z,-0.90
2023-01-22T03:31:51.046Z,-0.90
2023-01-22T03:34:24.939Z,-0.90
2023-01-22T03:36:56.692Z,-0.90
2023-01-22T03:39:28.442Z,-0.90
2023-01-22T03:42:00.243Z,-0.80
2023-01-22T03:44:31.972Z,-0.80
2023-01-22T03:47:03.845Z,-0.80
2023-01-22T03:49:35.583Z,-0.80
2023-01-22T03:52:07.285Z,-0.80
2023-01-22T03:54:39.274Z,-0.80
2023-01-22T03:57:10.992Z,-0.80
2023-01-22T03:59:42.665Z,-0.80
2023-01-22T04:02:14.723Z,-0.80
2023-01-22T04:04:47.783Z,-0.80
2023-01-22T04:07:19.727Z,-0.80
2023-01-22T04:09:52.055Z,-0.80
2023-01-22T04:12:23.834Z,-0.80
2023-01-22T04:14:55.584Z,-0.80
2023-01-22T04:17:27.317Z,-0.70
2023-01-22T04:19:58.999Z,-0.70
2023-01-22T04:22:30.718Z,-0.70
2023-01-22T04:25:02.406Z,-0.70
2023-01-22T04:27:37.770Z,-0.70
2023-01-22T04:30:10.109Z,-0.70
2023-01-22T04:32:41.847Z,-0.70
2023-01-22T04:35:13.649Z,-0.70
2023-01-22T04:37:45.365Z,-0.70
2023-01-22T04:40:17.454Z,-0.70
2023-01-22T04:42:49.683Z,-0.70
2023-01-22T04:45:21.727Z,-0.60
2023-01-22T04:47:53.472Z,-0.60
2023-01-22T04:50:28.087Z,-0.60
2023-01-22T04:53:01.047Z,-0.70
2023-01-22T04:55:32.846Z,-0.70
2023-01-22T04:58:04.543Z,-0.60
2023-01-22T05:00:36.763Z,-0.60
2023-01-22T05:03:08.491Z,-0.60
2023-01-22T05:05:40.219Z,-0.60
2023-01-22T05:08:11.915Z,-0.70
2023-01-22T05:10:43.652Z,-0.60
2023-01-22T05:13:15.322Z,-0.60
2023-01-22T05:15:47.072Z,-0.60
2023-01-22T05:18:18.820Z,-0.50
2023-01-22T05:20:50.600Z,-0.60
2023-01-22T05:23:22.348Z,-0.50
2023-01-22T05:25:54.143Z,-0.50
2023-01-22T05:28:25.880Z,-0.50
2023-01-22T05:30:57.673Z,-0.50
2023-01-22T05:33:30.114Z,-0.50
2023-01-22T05:36:03.441Z,-0.50
2023-01-22T05:38:35.132Z,-0.50
2023-01-22T05:41:06.927Z,-0.50
2023-01-22T05:43:39.176Z,-0.50
2023-01-22T05:46:10.956Z,-0.50
2023-01-22T05:48:42.718Z,-0.50
2023-01-22T05:51:14.464Z,-0.50
2023-01-22T05:53:46.300Z,-0.50
2023-01-22T05:56:18.149Z,-0.50
2023-01-22T05:58:50.779Z,-0.50
2023-01-22T06:01:22.488Z,-0.50
2023-01-22T06:03:54.408Z,-0.40
2023-01-22T06:06:26.204Z,-0.40
2023-01-22T06:08:58.304Z,-0.40
2023-01-22T06:11:30.021Z,-0.40
2023-01-22T06:14:01.693Z,-0.40
2023-01-22T06:16:33.646Z,-0.50
2023-01-22T06:19:06.007Z,-0.40
2023-01-22T06:21:37.749Z,-0.40
2023-01-22T06:24:09.661Z,-0.40
2023-01-22T06:26:41.337Z,-0.40
2023-01-22T06:29:13.224Z,-0.40
2023-01-22T06:31:45.202Z,-0.40
2023-01-22T06:34:17.004Z,-0.40
2023-01-22T06:36:49.052Z,-0.40
2023-01-22T06:39:20.843Z,-0.40
2023-01-22T06:41:52.588Z,-0.40
2023-01-22T06:44:24.309Z,-0.30
2023-01-22T06:46:55.967Z,-0.40
2023-01-22T06:49:27.705Z,-0.30
2023-01-22T06:51:59.547Z,-0.30
2023-01-22T06:54:32.214Z,-0.30
2023-01-22T06:57:05.496Z,-0.30
2023-01-22T06:59:37.403Z,-0.30
2023-01-22T07:02:16.997Z,-0.30
2023-01-22T07:04:48.829Z,-0.30
2023-01-22T07:07:20.526Z,-0.30
2023-01-22T07:09:52.207Z,-0.30
2023-01-22T07:12:24.286Z,-0.30
2023-01-22T07:14:55.960Z,-0.30
2023-01-22T07:17:28.033Z,-0.30
2023-01-22T07:19:59.795Z,-0.30
2023-01-22T07:22:32.522Z,-0.30
2023-01-22T07:25:04.498Z,-0.20
2023-01-22T07:27:38.405Z,-0.20
2023-01-22T07:30:10.768Z,-0.20
2023-01-22T07:32:42.486Z,-0.20
2023-01-22T07:35:14.649Z,-0.20
2023-01-22T07:37:57.610Z,-0.20
2023-01-22T07:40:29.372Z,-0.20
2023-01-22T07:43:05.474Z,-0.20
2023-01-22T07:45:37.154Z,-0.20
2023-01-22T07:48:10.865Z,-0.10
2023-01-22T07:50:42.619Z,-0.10
2023-01-22T07:53:14.328Z,-0.20
2023-01-22T07:55:46.128Z,-0.20
2023-01-22T07:58:18.532Z,-0.10
2023-01-22T08:00:50.877Z,-0.10
2023-01-22T08:03:22.637Z,-0.10
2023-01-22T08:05:54.465Z,0.00
2023-01-22T08:08:26.682Z,0.00
2023-01-22T08:10:59.917Z,0.00
2023-01-22T08:13:31.800Z,0.10
2023-01-22T08:16:03.715Z,0.10
2023-01-22T08:18:36.334Z,0.10
2023-01-22T08:21:08.164Z,0.20
2023-01-22T08:23:39.868Z,0.20
2023-01-22T08:26:11.530Z,0.20
2023-01-22T08:28:43.336Z,0.30
2023-01-22T08:31:26.919Z,0.30
2023-01-22T08:34:00.128Z,0.30
2023-01-22T08:36:31.875Z,0.30
2023-01-22T08:39:03.790Z,0.40
2023-01-22T08:41:35.471Z,0.30
2023-01-22T08:44:07.779Z,0.30
2023-01-22T08:46:42.739Z,0.30
2023-01-22T08:49:14.480Z,0.40
2023-01-22T08:51:46.164Z,0.30
2023-01-22T08:54:18.620Z,0.30
2023-01-22T08:56:50.365Z,0.30
2023-01-22T08:59:22.156Z,0.30
2023-01-22T09:01:54.128Z,0.30
2023-01-22T09:04:26.250Z,0.40
2023-01-22T09:06:57.982Z,0.40
2023-01-22T09:09:29.730Z,0.50
2023-01-22T09:12:01.466Z,0.50
2023-01-22T09:14:33.227Z,0.50
2023-01-22T09:17:04.962Z,0.50
2023-01-22T09:19:36.638Z,0.50
2023-01-22T09:22:08.374Z,0.50
2023-01-22T09:24:40.075Z,0.50
2023-01-22T09:27:12.411Z,0.50
2023-01-22T09:29:45.013Z,0.50
2023-01-22T09:32:16.963Z,0.60
2023-01-22T09:34:48.671Z,0.60
2023-01-22T09:37:20.627Z,0.70
2023-01-22T09:39:52.746Z,0.70
2023-01-22T09:42:32.115Z,0.70
2023-01-22T09:45:14.592Z,0.80
2023-01-22T09:47:50.041Z,0.90
2023-01-22T09:50:28.266Z,0.90
2023-01-22T09:53:04.255Z,0.90
2023-01-22T09:55:51.327Z,0.90
2023-01-22T09:58:25.423Z,0.90
2023-01-22T10:01:01.376Z,1.00
2023-01-22T10:03:50.330Z,1.10
2023-01-22T10:06:23.606Z,1.00
2023-01-22T10:09:01.420Z,1.00
2023-01-22T10:11:33.335Z,1.00
2023-01-22T10:14:09.222Z,1.20
2023-01-22T10:16:41.062Z,1.30
2023-01-22T10:19:23.891Z,1.40
2023-01-22T10:22:06.485Z,1.40
2023-01-22T10:24:38.298Z,1.50
2023-01-22T10:27:16.876Z,1.60
2023-01-22T10:30:23.886Z,1.60
2023-01-22T10:33:04.098Z,1.60
2023-01-22T10:35:44.292Z,1.50
2023-01-22T10:38:23.360Z,1.50
2023-01-22T10:41:03.134Z,1.50
2023-01-22T10:43:39.116Z,1.40
2023-01-22T10:46:16.390Z,1.40
2023-01-22T10:49:08.210Z,1.40
2023-01-22T10:51:43.739Z,1.50
2023-01-22T10:54:39.189Z,1.50
2023-01-22T10:57:20.162Z,1.50
2023-01-22T11:00:10.826Z,1.50
2023-01-22T11:02:44.702Z,1.60
2023-01-22T11:05:22.090Z,1.50
2023-01-22T11:07:58.810Z,1.50
2023-01-22T11:10:38.816Z,1.50
2023-01-22T11:13:19.557Z,1.40
2023-01-22T11:16:06.325Z,1.40
2023-01-22T11:18:45.973Z,1.40
2023-01-22T11:21:29.909Z,1.40
2023-01-22T11:24:38.837Z,1.40
2023-01-22T11:27:30.635Z,1.40
2023-01-22T11:30:24.777Z,1.40
2023-01-22T11:33:12.581Z,1.40
2023-01-22T11:36:12.994Z,1.30
2023-01-22T11:38:56.373Z,1.30
2023-01-22T11:41:43.081Z,1.30
2023-01-22T11:44:50.429Z,1.30
2023-01-22T11:47:28.450Z,1.30
2023-01-22T11:50:19.583Z,1.20
2023-01-22T11:53:10.119Z,1.20
2023-01-22T11:55:54.648Z,1.10
2023-01-22T11:58:34.240Z,1.10
2023-01-22T12:01:44.481Z,1.10
2023-01-22T12:04:38.138Z,1.10
2023-01-22T12:07:21.279Z,1.20
2023-01-22T12:10:29.904Z,1.20
2023-01-22T12:13:38.509Z,1.20
2023-01-22T12:16:38.025Z,1.20
2023-01-22T12:19:34.836Z,1.20
2023-01-22T12:22:18.302Z,1.10
2023-01-22T12:25:03.451Z,1.10
2023-01-22T12:27:49.224Z,1.10
2023-01-22T12:30:41.723Z,1.20
2023-01-22T12:33:17.687Z,1.30
2023-01-22T12:35:52.011Z,1.30
2023-01-22T12:38:46.687Z,1.20
2023-01-22T12:41:24.720Z,1.30
2023-01-22T12:44:00.150Z,1.40
2023-01-22T12:47:12.220Z,1.40
2023-01-22T12:49:52.042Z,1.40
2023-01-22T12:52:32.664Z,1.40
2023-01-22T12:55:27.857Z,1.40
2023-01-22T12:57:59.723Z,1.50
2023-01-22T13:00:36.707Z,1.40
2023-01-22T13:03:33.123Z,1.40
2023-01-22T13:06:30.108Z,1.30
2023-01-22T13:09:03.544Z,1.30
2023-01-22T13:11:39.499Z,1.20
2023-01-22T13:14:28.677Z,1.30
2023-01-22T13:17:24.555Z,1.30
2023-01-22T13:19:57.956Z,1.40
2023-01-22T13:22:29.703Z,1.40
2023-01-22T13:25:01.387Z,1.40
2023-01-22T13:27:36.257Z,1.40
2023-01-22T13:30:19.109Z,1.50
2023-01-22T13:32:51.075Z,1.40
2023-01-22T13:35:22.754Z,1.30
2023-01-22T13:37:54.487Z,1.20
2023-01-22T13:40:31.536Z,1.20
2023-01-22T13:43:06.813Z,1.30
2023-01-22T13:45:40.211Z,1.30
2023-01-22T13:48:18.060Z,1.30
2023-01-22T13:51:17.319Z,1.20
2023-01-22T13:53:54.501Z,1.30
2023-01-22T13:56:27.961Z,1.30
2023-01-22T13:59:36.128Z,1.40
2023-01-22T14:02:20.272Z,1.40
2023-01-22T14:04:52.019Z,1.30
2023-01-22T14:07:32.365Z,1.30
2023-01-22T14:10:16.366Z,1.30
2023-01-22T14:13:06.298Z,1.40
2023-01-22T14:15:39.360Z,1.40
2023-01-22T14:18:16.968Z,1.30
2023-01-22T14:20:48.797Z,1.30
2023-01-22T14:23:20.502Z,1.30
2023-01-22T14:25:54.473Z,1.30
2023-01-22T14:28:30.363Z,1.30
2023-01-22T14:31:02.992Z,1.30
2023-01-22T14:33:35.045Z,1.30
2023-01-22T14:36:07.244Z,1.20
2023-01-22T14:38:39.169Z,1.20
2023-01-22T14:41:10.843Z,1.20
2023-01-22T14:43:42.557Z,1.20
2023-01-22T14:46:14.311Z,1.20
2023-01-22T14:48:47.292Z,1.20
2023-01-22T14:51:19.150Z,1.20
2023-01-22T14:53:50.876Z,1.10
2023-01-22T14:56:22.603Z,1.20
2023-01-22T14:58:54.308Z,1.20
2023-01-22T15:01:26.010Z,1.20
2023-01-22T15:03:57.731Z,1.10
2023-01-22T15:06:29.432Z,1.20
2023-01-22T15:09:01.291Z,1.10
2023-01-22T15:11:33.028Z,1.20
2023-01-22T15:14:05.615Z,1.10
2023-01-22T15:16:38.926Z,1.00
2023-01-22T15:19:10.776Z,1.00
2023-01-22T15:21:42.589Z,1.00
2023-01-22T15:24:14.304Z,1.00
2023-01-22T15:26:45.991Z,1.00
2023-01-22T15:29:17.639Z,1.00
2023-01-22T15:31:49.401Z,1.00
2023-01-22T15:34:21.130Z,1.00
2023-01-22T15:36:52.841Z,0.90
2023-01-22T15:39:24.559Z,1.00
2023-01-22T15:41:56.271Z,1.00
2023-01-22T15:44:28.135Z,0.90
2023-01-22T15:47:01.230Z,1.00
2023-01-22T15:49:33.999Z,1.00
2023-01-22T15:52:05.769Z,1.00
2023-01-22T15:54:37.526Z,0.90
2023-01-22T15:57:09.336Z,0.90
2023-01-22T15:59:41.983Z,0.90
2023-01-22T16:02:13.854Z,0.90
2023-01-22T16:04:45.628Z,0.80
2023-01-22T16:07:17.404Z,0.80
2023-01-22T16:09:49.119Z,0.80
2023-01-22T16:12:20.916Z,0.90
2023-01-22T16:14:52.750Z,0.90
2023-01-22T16:17:24.489Z,0.90
2023-01-22T16:19:56.259Z,0.80
2023-01-22T16:22:27.987Z,0.80
2023-01-22T16:24:59.727Z,0.90
2023-01-22T16:27:31.503Z,0.80
2023-01-22T16:30:04.052Z,0.80
2023-01-22T16:32:35.825Z,0.80
2023-01-22T16:35:08.603Z,0.80
2023-01-22T16:37:40.344Z,0.80
2023-01-22T16:40:13.487Z,0.90
2023-01-22T16:42:59.297Z,0.80
2023-01-22T16:45:31.305Z,0.80
2023-01-22T16:48:03.071Z,0.80
2023-01-22T16:50:35.076Z,0.80
2023-01-22T16:53:06.753Z,0.80
2023-01-22T16:55:38.511Z,0.80
2023-01-22T16:58:10.213Z,0.70
2023-01-22T17:00:41.985Z,0.70
2023-01-22T17:03:13.914Z,0.70
2023-01-22T17:05:48.514Z,0.70
2023-01-22T17:08:20.456Z,0.70
2023-01-22T17:10:52.443Z,0.70
2023-01-22T17:13:24.243Z,0.60
2023-01-22T17:15:55.957Z,0.60
2023-01-22T17:18:27.691Z,0.60
2023-01-22T17:21:06.514Z,0.60
2023-01-22T17:23:38.443Z,0.60
2023-01-22T17:26:12.723Z,0.60
2023-01-22T17:28:45.920Z,0.60
2023-01-22T17:31:21.962Z,0.60
2023-01-22T17:33:55.471Z,0.60
2023-01-22T17:36:28.370Z,0.60
2023-01-22T17:39:01.616Z,0.50
2023-01-22T17:41:33.590Z,0.50
2023-01-22T17:44:05.331Z,0.50
2023-01-22T17:46:37.191Z,0.50
2023-01-22T17:49:11.113Z,0.50
2023-01-22T17:51:43.600Z,0.50
2023-01-22T17:54:15.526Z,0.50
2023-01-22T17:56:49.052Z,0.50
2023-01-22T17:59:24.210Z,0.50
2023-01-22T18:01:55.951Z,0.40
2023-01-22T18:04:30.532Z,0.50
2023-01-22T18:07:03.751Z,0.50
2023-01-22T18:09:35.510Z,0.50
2023-01-22T18:12:07.363Z,0.50
2023-01-22T18:14:39.827Z,0.50
2023-01-22T18:17:11.578Z,0.50
2023-01-22T18:19:43.231Z,0.50
2023-01-22T18:22:15.226Z,0.50
2023-01-22T18:24:46.923Z,0.50
2023-01-22T18:27:18.643Z,0.50
2023-01-22T18:29:50.358Z,0.50
2023-01-22T18:32:22.477Z,0.50
2023-01-22T18:34:54.248Z,0.50
2023-01-22T18:37:26.047Z,0.50
2023-01-22T18:39:57.838Z,0.50
2023-01-22T18:42:30.696Z,0.40
2023-01-22T18:45:02.458Z,0.40
2023-01-22T18:47:34.655Z,0.40
2023-01-22T18:50:08.215Z,0.40
2023-01-22T18:52:40.068Z,0.40
2023-01-22T18:55:11.999Z,0.40
2023-01-22T18:57:46.339Z,0.40
2023-01-22T19:00:20.216Z,0.40
2023-01-22T19:02:56.498Z,0.40
2023-01-22T19:05:28.867Z,0.40
2023-01-22T19:08:00.555Z,0.40
2023-01-22T19:10:32.553Z,0.30
2023-01-22T19:13:04.315Z,0.30
2023-01-22T19:15:36.064Z,0.30
2023-01-22T19:18:09.288Z,0.30
2023-01-22T19:20:41.075Z,0.30
2023-01-22T19:23:12.824Z,0.30
2023-01-22T19:25:44.591Z,0.30
2023-01-22T19:28:16.308Z,0.30
2023-01-22T19:30:48.055Z,0.30
2023-01-22T19:33:21.516Z,0.40
2023-01-22T19:35:56.114Z,0.30
2023-01-22T19:38:28.463Z,0.30
2023-01-22T19:41:00.556Z,0.30
2023-01-22T19:43:33.084Z,0.30
2023-01-22T19:46:07.907Z,0.40
2023-01-22T19:48:40.287Z,0.30
2023-01-22T19:51:15.733Z,0.40
2023-01-22T19:53:48.744Z,0.40
2023-01-22T19:56:29.360Z,0.40
2023-01-22T19:59:05.853Z,0.40
2023-01-22T20:01:39.114Z,0.40
2023-01-22T20:04:17.995Z,0.40
2023-01-22T20:06:54.496Z,0.40
2023-01-22T20:09:26.592Z,0.40
2023-01-22T20:11:59.030Z,0.40
2023-01-22T20:14:33.222Z,0.40
2023-01-22T20:17:05.386Z,0.40
2023-01-22T20:19:38.227Z,0.40
2023-01-22T20:22:10.839Z,0.40
2023-01-22T20:24:43.436Z,0.40
2023-01-22T20:27:15.408Z,0.40
2023-01-22T20:29:47.168Z,0.50
2023-01-22T20:32:18.914Z,0.50
2023-01-22T20:34:51.598Z,0.40
2023-01-22T20:37:24.183Z,0.40
2023-01-22T20:39:55.976Z,0.40
2023-01-22T20:42:28.394Z,0.40
2023-01-22T20:45:00.121Z,0.40
2023-01-22T20:47:35.992Z,0.40
2023-01-22T20:50:08.882Z,0.30
2023-01-22T20:52:40.578Z,0.30
2023-01-22T20:55:15.457Z,0.30
2023-01-22T20:57:47.167Z,0.30
2023-01-22T21:00:19.177Z,0.30
2023-01-22T21:02:51.056Z,0.30
2023-01-22T21:05:22.799Z,0.30
2023-01-22T21:07:54.483Z,0.30
2023-01-22T21:10:26.623Z,0.30
2023-01-22T21:12:58.287Z,0.30
2023-01-22T21:15:30.056Z,0.30
2023-01-22T21:18:01.723Z,0.30
2023-01-22T21:20:33.721Z,0.30
2023-01-22T21:23:05.401Z,0.30
2023-01-22T21:25:37.563Z,0.30
2023-01-22T21:28:10.770Z,0.40
2023-01-22T21:30:43.328Z,0.40
2023-01-22T21:33:16.945Z,0.40
2023-01-22T21:35:50.259Z,0.40
2023-01-22T21:38:21.935Z,0.40
2023-01-22T21:40:53.700Z,0.40
2023-01-22T21:43:44.006Z,0.40
2023-01-22T21:46:21.885Z,0.40
2023-01-22T21:48:57.240Z,0.40
2023-01-22T21:51:30.978Z,0.40
2023-01-22T21:54:02.704Z,0.40
2023-01-22T21:56:34.430Z,0.40
2023-01-22T21:59:06.271Z,0.40
2023-01-22T22:01:38.544Z,0.50
2023-01-22T22:04:10.909Z,0.50
2023-01-22T22:06:42.682Z,0.50
2023-01-22T22:09:18.209Z,0.50
2023-01-22T22:11:50.842Z,0.40
2023-01-22T22:14:22.524Z,0.40
2023-01-22T22:16:54.763Z,0.40
2023-01-22T22:19:28.401Z,0.40
2023-01-22T22:22:00.104Z,0.40
2023-01-22T22:24:31.855Z,0.50
2023-01-22T22:27:04.569Z,0.50
2023-01-22T22:29:36.392Z,0.50
2023-01-22T22:32:08.173Z,0.50
2023-01-22T22:34:40.045Z,0.50
2023-01-22T22:37:11.788Z,0.40
2023-01-22T22:39:43.601Z,0.50
2023-01-22T22:42:15.351Z,0.50
2023-01-22T22:44:47.031Z,0.50
2023-01-22T22:47:18.754Z,0.50
2023-01-22T22:49:50.539Z,0.50
2023-01-22T22:52:22.251Z,0.50
2023-01-22T22:54:53.969Z,0.60
2023-01-22T22:57:25.718Z,0.60
2023-01-22T22:59:57.462Z,0.60
2023-01-22T23:02:29.238Z,0.60
2023-01-22T23:05:01.021Z,0.60
2023-01-22T23:07:32.762Z,0.60
2023-01-22T23:10:05.077Z,0.50
2023-01-22T23:12:36.771Z,0.60
2023-01-22T23:15:09.195Z,0.50
2023-01-22T23:17:40.951Z,0.60
2023-01-22T23:20:13.241Z,0.60
2023-01-22T23:22:45.377Z,0.50
2023-01-22T23:25:17.792Z,0.50
2023-01-22T23:27:49.637Z,0.50
2023-01-22T23:30:21.483Z,0.50
2023-01-22T23:32:53.419Z,0.50
2023-01-22T23:35:25.221Z,0.50
2023-01-22T23:37:57.098Z,0.50
2023-01-22T23:40:28.859Z,0.50
2023-01-22T23:43:01.992Z,0.50
2023-01-22T23:45:38.449Z,0.50
2023-01-22T23:48:10.095Z,0.50
2023-01-22T23:50:48.629Z,0.60
2023-01-22T23:53:21.587Z,0.60
2023-01-22T23:56:00.722Z,0.60
2023-01-22T23:58:35.021Z,0.50
